x

9442396 - La Push, Wa (lapw1) Weather Station

5:36 - Sat 10th Dec 2016 All times are PST. -8 hours from GMT.

  • Wind
    16mph, 24mph gusts
  • Sea Temp 39°f
  • Ar Temp 47°f
  • Sea Pressure 1008.1mb
  • 9442396 - La Push, Wa
  • 9442396 - La Push, Wa

More Historic Weather Station data

Upgrade to MSW Pro to gain access to the past 30 days of data for over 8000 Wavebouys and Weather Stations around the globe.

Join Pro

Comparision Forecast

View Surf forecast
   
Sáb 12/10 5:36 16 24 mph 1008.1mb 39f 47f
5:30 14 22 mph 1008.1mb 39f 47f
5:24 15 22 mph 1008.1mb 39f 47f
5:18 14 20 mph 1008mb 39f 47f
5:12 10 21 mph 1008mb 39f 47f
5:06 13 20 mph 1008mb 39f 47f
5:00 16 23 mph 1008mb 39f 47f
4:36 15 22 mph 1007.9mb 39f 47f
4:30 14 20 mph 1008mb 39f 47f
4:24 11 20 mph 1007.9mb 39f 46f
4:18 14 24 mph 1008mb 39f 46f
4:12 20 29 mph 1008.1mb 39f 47f
4:06 16 22 mph 1008mb 38f 47f
4:00 15 22 mph 1008mb 38f 47f
3:36 14 20 mph 1007.7mb 38f 47f
3:30 13 21 mph 1007.8mb 38f 46f
3:24 15 26 mph 1007.9mb 39f 46f
3:18 22 28 mph 1008mb 39f 47f
3:12 23 32 mph 1007.7mb 38f 48f
3:06 14 22 mph 1007.6mb 38f 48f
3:00 16 28 mph 1007.5mb 38f 48f
2:36 17 22 mph 1007.5mb 38f 48f
2:30 20 23 mph 1007.4mb 38f 48f
2:24 20 25 mph 1007.4mb 38f 48f
2:18 20 24 mph 1007.4mb 38f 48f
2:12 14 21 mph 1007.4mb 38f 48f
2:06 13 18 mph 1007.4mb 38f 48f
2:00 11 16 mph 1007.3mb 39f 47f
1:36 11 21 mph 1007.5mb 39f 46f
1:30 16 33 mph 1007.5mb 39f 48f
1:24 14 20 mph 1007.6mb 39f 48f
1:18 17 21 mph 1007.3mb 39f 47f
1:12 11 17 mph 1007.3mb 39f 47f
1:06 17 30 mph 1007.3mb 40f 48f
1:00 16 23 mph 1007.4mb 39f 48f
12:36 16 21 mph 1007.1mb 40f 49f
12:30 13 20 mph 1007.1mb 40f 49f
12:24 11 20 mph 1007.1mb 40f 49f
12:18 13 22 mph 1007.1mb 41f 49f
12:12 17 23 mph 1007.1mb 41f 50f
12:06 18 22 mph 1007.2mb 42f 49f
12:00 13 21 mph 1007.2mb 42f 47f
11:36 10 16 mph 1007mb 45f 46f
11:30 14 22 mph 1007mb 46f 47f
11:24 17 24 mph 1007.3mb 46f 48f
11:18 14 18 mph 1007.1mb 47f 47f
11:12 15 20 mph 1006.9mb 47f 44f
11:06 8 15 mph 1007.1mb 47f 42f
11:00 6 10 mph 1007.1mb 47f 42f
10:36 8 14 mph 1007.3mb 47f 42f
10:30 7 15 mph 1007.3mb 47f 42f
10:24 11 18 mph 1007.4mb 48f 42f
10:18 10 18 mph 1007.5mb 48f 42f
10:12 11 17 mph 1007.6mb 48f 41f
10:06 8 18 mph 1007.4mb 48f 42f
10:00 8 14 mph 1007mb 48f 42f
9:36 11 21 mph 1007.1mb 48f 42f
9:30 7 14 mph 1007.1mb 48f 42f
9:24 9 16 mph 1007.3mb 48f 42f
9:18 8 17 mph 1007.5mb 48f 42f
9:12 8 15 mph 1007.4mb 48f 42f
9:06 8 18 mph 1007.4mb 48f 42f
9:00 9 17 mph 1007.3mb 48f 42f
8:36 9 20 mph 1007.6mb 48f 41f
8:30 10 21 mph 1007.7mb 48f 41f
8:24 9 16 mph 1007.7mb 48f 40f
8:18 7 15 mph 1007.7mb 48f 40f
8:12 6 13 mph 1007.6mb 48f 40f
8:06 5 10 mph 1007.7mb 48f 39f
8:00 6 8 mph 1007.6mb 48f 39f
7:36 7 11 mph 1007.4mb 48f 39f
7:30 5 11 mph 1007.5mb 48f 39f
7:24 6 9 mph 1007.4mb 48f 39f
7:18 7 11 mph 1007.3mb 48f 39f
7:12 8 11 mph 1007.4mb 48f 38f
7:06 5 10 mph 1007.5mb 48f 38f
7:00 6 11 mph 1007.9mb 48f 38f
6:36 7 13 mph 1008mb 47f 37f
6:30 7 10 mph 1008.1mb 47f 37f
6:24 6 9 mph 1008mb 47f 37f
6:18 7 9 mph 1008.2mb 47f 36f
6:12 6 8 mph 1008.2mb 47f 36f
6:06 6 8 mph 1008.3mb 47f 36f
6:00 7 8 mph 1008.5mb 47f 36f
5:36 7 9 mph 1008.7mb 46f 36f
5:30 8 10 mph 1008.7mb 46f 36f
5:24 8 10 mph 1008.6mb 46f 36f
5:18 8 10 mph 1008.7mb 45f 36f
5:12 9 10 mph 1008.9mb 44f 35f
5:06 7 8 mph 1008.9mb 43f 35f
5:00 6 9 mph 1009mb 41f 35f
4:36 6 8 mph 1009mb 38f 35f
4:30 6 8 mph 1009mb 38f 35f
4:24 6 9 mph 1009.2mb 38f 35f
4:18 6 9 mph 1009.2mb 38f 36f
4:12 8 9 mph 1009.1mb 38f 36f
4:06 6 9 mph 1009.1mb 39f 36f
4:00 6 8 mph 1009.1mb 38f 36f
3:36 7 9 mph 1009.1mb 38f 36f
3:30 5 7 mph 1009.2mb 38f 37f
3:24 5 7 mph 1009.3mb 38f 37f
3:18 5 7 mph 1009.3mb 38f 36f
3:12 3 6 mph 1009.3mb 38f 37f
3:06 5 6 mph 1009.3mb 38f 38f
3:00 6 7 mph 1009.2mb 38f 38f
2:36 5 6 mph 1009.3mb 39f 38f
2:30 2 11 mph 1009.3mb 39f 38f
2:24 7 13 mph 1009.5mb 39f 37f
2:18 1 7 mph 1009.9mb 39f 36f
2:12 5 9 mph 1009.3mb 37f 36f
2:06 6 9 mph 1009.2mb 37f 36f
2:00 8 11 mph 1009.2mb 37f 36f
1:36 8 11 mph 1009.2mb 37f 37f
1:30 9 10 mph 1009.2mb 37f 37f
1:24 8 10 mph 1009.1mb 37f 37f
1:18 8 10 mph 1009mb 37f 37f
1:12 8 10 mph 1009mb 37f 37f
1:06 8 10 mph 1009mb 37f 38f
1:00 7 10 mph 1009mb 37f 38f
12:36 3 6 mph 1009.1mb 37f 44f
12:30 3 13 mph 1009mb 38f 44f
12:24 13 18 mph 1009.2mb 38f 42f
12:18 9 16 mph 1009.3mb 39f 38f
12:12 5 7 mph 1009.2mb 39f 38f
12:06 5 8 mph 1009.1mb 39f 38f
12:00 6 8 mph 1009mb 39f 37f
Sex 12/09 11:36 8 10 mph 1008.8mb 39f 38f
11:30 9 10 mph 1008.7mb 39f 38f
11:24 6 10 mph 1008.7mb 40f 38f
11:18 5 7 mph 1008.7mb 39f 38f
11:12 2 5 mph 1008.7mb 40f 38f
11:06 3 6 mph 1008.8mb 40f 38f
11:00 3 6 mph 1008.7mb 41f 40f
10:36 2 3 mph 1008.6mb 44f 40f
10:30 2 6 mph 1008.6mb 44f 40f
10:24 5 6 mph 1008.5mb 45f 41f
10:18 5 9 mph 1008.4mb 45f 41f
10:12 6 10 mph 1008.4mb 46f 40f
10:06 6 8 mph 1008.5mb 46f 40f
10:00 5 13 mph 1008.3mb 46f 42f
9:36 7 11 mph 1008mb 46f 46f
9:30 10 11 mph 1008mb 47f 45f
9:24 8 11 mph 1008mb 47f 45f
9:18 8 11 mph 1008mb 47f 45f
9:12 8 11 mph 1008mb 46f 45f
9:06 9 15 mph 1008mb 46f 45f
9:00 13 18 mph 1008mb 47f 45f
8:36 6 8 mph 1007.6mb 47f 43f
8:30 7 14 mph 1007.7mb 47f 43f
8:24 5 9 mph 1007.7mb 47f 42f
8:18 6 13 mph 1007.6mb 47f 42f
8:12 6 9 mph 1007.6mb 47f 42f
8:06 6 8 mph 1007.6mb 47f 42f
8:00 5 11 mph 1007.4mb 47f 42f
7:36 5 9 mph 1007.7mb 47f 42f
7:30 5 8 mph 1007.6mb 47f 42f
7:24 6 9 mph 1007.7mb 47f 42f
7:18 5 8 mph 1007.9mb 47f 42f
7:12 5 8 mph 1008mb 47f 42f
7:06 3 9 mph 1008.1mb 47f 42f
7:00 6 9 mph 1008.1mb 47f 42f
6:36 2 6 mph 1008.2mb 46f 42f
6:30 5 11 mph 1008.3mb 46f 42f
6:24 3 7 mph 1008.3mb 46f 42f
6:18 6 8 mph 1008.3mb 45f 41f
6:12 6 8 mph 1008.5mb 45f 41f
6:06 5 8 mph 1008.4mb 44f 41f
6:00 5 9 mph 1008.5mb 43f 41f
5:54 7 10 mph 1008.7mb 42f 41f
5:48 5 7 mph 1008.5mb 40f 41f
5:36 11 16 mph 1008.6mb 39f 42f
5:30 13 20 mph 1008.8mb 38f 42f
5:24 20 25 mph 1008.9mb 38f 42f
5:18 9 13 mph 1009mb 38f 42f
5:12 7 14 mph 1008.5mb 38f 41f
5:06 6 10 mph 1008.4mb 38f 41f
5:00 6 9 mph 1008.2mb 38f 42f
4:54 6 8 mph 1008mb 38f 42f
4:48 7 14 mph 1008.1mb 38f 42f
4:36 6 18 mph 1008.3mb 38f 42f
4:30 9 23 mph 1008.5mb 38f 43f
4:24 11 18 mph 1008.7mb 37f 43f
4:18 7 13 mph 1008.8mb 37f 42f
4:12 7 14 mph 1008.9mb 38f 43f
4:06 10 17 mph 1008.8mb 37f 43f
4:00 9 13 mph 1008.9mb 37f 43f
3:54 9 15 mph 1008.9mb 37f 42f
3:48 5 8 mph 1008.9mb 37f 42f
3:36 5 8 mph 1009.2mb 37f 42f
3:30 5 7 mph 1009.4mb 37f 42f
3:24 5 7 mph 1009.6mb 37f 42f
3:18 5 8 mph 1009.7mb 37f 42f
3:12 5 8 mph 1009.8mb 37f 42f
3:06 5 8 mph 1009.8mb 36f 42f
3:00 5 7 mph 1010mb 36f 42f
2:54 5 8 mph 1010mb 36f 42f
2:48 5 7 mph 1010.1mb 36f 42f
2:36 6 8 mph 1010.2mb 37f 43f
2:30 6 9 mph 1010.4mb 38f 43f
2:24 5 7 mph 1010.4mb 38f 43f
2:18 6 7 mph 1010.6mb 38f 43f
2:12 3 8 mph 1010.7mb 37f 43f
2:06 6 9 mph 1010.8mb 37f 43f
2:00 5 7 mph 1010.9mb 37f 44f
1:54 6 9 mph 1010.8mb 37f 44f
1:48 5 8 mph 1010.9mb 37f 43f
1:36 6 9 mph 1011mb 37f 43f
1:30 6 8 mph 1011.1mb 37f 43f
1:24 3 8 mph 1011.1mb 38f 43f
1:18 3 10 mph 1011.2mb 38f 43f
1:12 6 10 mph 1011.3mb 38f 44f
1:06 6 9 mph 1011.4mb 38f 44f
1:00 6 9 mph 1011.4mb 38f 44f
12:54 5 9 mph 1011.4mb 38f 44f
12:48 5 9 mph 1011.3mb 37f 44f
12:36 8 20 mph 1011.5mb 38f 44f
12:30 11 17 mph 1011.6mb 38f 44f
12:24 8 16 mph 1011.6mb 38f 43f
12:18 8 14 mph 1011.6mb 39f 43f
12:12 9 14 mph 1011.7mb 39f 43f
12:06 8 15 mph 1011.9mb 39f 43f
12:00 8 15 mph 1012mb 39f 43f
11:54 7 11 mph 1012.2mb 40f 43f
11:48 6 10 mph 1012.2mb 40f 43f
11:36 5 11 mph 1012.3mb 42f 43f
11:30 7 15 mph 1012.4mb 43f 43f
11:24 5 11 mph 1012.4mb 44f 43f
11:18 7 13 mph 1012.5mb 45f 43f
11:12 8 13 mph 1012.5mb 46f 43f
11:06 6 9 mph 1012.5mb 47f 42f
11:00 3 10 mph 1012.5mb 47f 42f
10:54 6 8 mph 1012.5mb 48f 42f
10:48 6 7 mph 1012.5mb 49f 41f
10:36 5 7 mph 1012.5mb 49f 41f
10:30 6 9 mph 1012.5mb 49f 41f
10:24 3 8 mph 1012.7mb 49f 41f
10:18 5 8 mph 1012.7mb 49f 40f
10:12 5 7 mph 1012.5mb 49f 40f
10:06 6 8 mph 1012.6mb 49f 40f
10:00 6 7 mph 1012.6mb 49f 40f
9:54 3 6 mph 1012.5mb 49f 39f
9:48 3 6 mph 1012.5mb 50f 39f
9:36 5 8 mph 1012.5mb 50f 40f
9:30 6 9 mph 1012.4mb 50f 39f
9:24 5 7 mph 1012.5mb 50f 39f
9:18 5 10 mph 1012.5mb 50f 39f
9:12 6 8 mph 1012.5mb 50f 39f
9:06 5 7 mph 1012.4mb 50f 40f
9:00 6 10 mph 1012.4mb 50f 39f
8:54 7 8 mph 1012.3mb 50f 39f
8:48 5 7 mph 1012.3mb 50f 39f
8:36 6 8 mph 1012.3mb 50f 42f
8:30 5 9 mph 1012.2mb 50f 42f
8:24 5 7 mph 1012.2mb 50f 42f
8:18 2 11 mph 1012.1mb 51f 42f
8:12 7 10 mph 1012mb 51f 42f
8:06 9 15 mph 1011.9mb 51f 42f
8:00 8 14 mph 1012.1mb 51f 42f
7:54 6 11 mph 1012mb 51f 42f
7:48 8 16 mph 1012mb 51f 42f
7:36 6 16 mph 1011.9mb 50f 42f
7:30 9 16 mph 1011.9mb 50f 43f
7:24 8 17 mph 1012mb 50f 43f
7:18 10 17 mph 1012.1mb 50f 43f
7:12 11 18 mph 1012.1mb 50f 43f
7:06 8 15 mph 1012.1mb 50f 43f
7:00 8 14 mph 1012.1mb 50f 42f
6:54 3 10 mph 1012mb 50f 42f
6:48 5 9 mph 1012mb 50f 43f
6:36 5 10 mph 1011.8mb 50f 43f
6:30 6 10 mph 1011.9mb 50f 42f
6:24 6 11 mph 1011.9mb 50f 42f
6:18 6 13 mph 1011.8mb 50f 42f
6:12 5 9 mph 1011.8mb 50f 42f
6:06 6 15 mph 1011.8mb 50f 41f
6:00 5 9 mph 1011.7mb 50f 41f
5:54 5 9 mph 1011.7mb 50f 40f
5:48 6 10 mph 1011.7mb 50f 41f
5:36 7 10 mph 1011.6mb 50f 39f
5:30 7 10 mph 1011.7mb 50f 38f
5:24 3 8 mph 1011.7mb 49f 41f
5:18 7 13 mph 1011.5mb 49f 42f
5:12 7 14 mph 1011.2mb 49f 42f
5:06 7 14 mph 1011.3mb 49f 42f
5:00 8 15 mph 1011.3mb 49f 41f
4:36 8 9 mph 1011.5mb 49f 36f
4:30 7 9 mph 1011.6mb 49f 35f
4:24 5 10 mph 1011.5mb 49f 35f
4:18 9 13 mph 1011.2mb 48f 37f
4:12 8 13 mph 1011.1mb 48f 40f
4:06 9 14 mph 1011mb 47f 39f
4:00 8 15 mph 1011.1mb 47f 37f
3:54 9 13 mph 1011.3mb 46f 34f
3:48 8 10 mph 1011.6mb 43f 33f
3:36 8 10 mph 1011.4mb 38f 33f
3:30 6 11 mph 1011.1mb - 33f
3:24 8 13 mph 1010.9mb - 33f
3:18 9 14 mph 1011mb - 33f
3:12 10 14 mph 1011mb - 33f
3:06 8 13 mph 1011.1mb - 33f
3:00 9 13 mph 1011mb - 33f
2:54 8 11 mph 1011mb - 33f
2:48 7 15 mph 1011mb - 33f
2:36 11 16 mph 1010.9mb - 33f
2:30 11 15 mph 1010.9mb - 33f
2:24 9 14 mph 1010.8mb - 33f
2:18 9 13 mph 1010.8mb - 33f
2:12 9 15 mph 1010.8mb - 32f
2:06 8 13 mph 1010.8mb - 32f
2:00 8 14 mph 1010.9mb - 32f
1:54 9 14 mph 1010.9mb - 32f
1:48 8 14 mph 1010.8mb - 32f
1:36 10 16 mph 1010.8mb - 32f
1:30 10 15 mph 1010.7mb - 32f
1:24 10 15 mph 1010.6mb - 32f
1:18 11 15 mph 1010.8mb - 32f
1:12 7 13 mph 1011mb - 32f
1:06 10 16 mph 1010.9mb - 32f
1:00 10 16 mph 1010.8mb - 32f
12:54 10 15 mph 1010.8mb 36f 32f
12:48 9 16 mph 1010.5mb 36f 32f
12:36 11 17 mph 1010.4mb 36f 31f
12:30 11 15 mph 1010.5mb 36f 31f
12:24 10 16 mph 1010.5mb 36f 31f
12:18 13 16 mph 1010.5mb 36f 31f
12:12 8 16 mph 1010.5mb 36f 31f
12:06 6 16 mph 1010.4mb 37f 31f
12:00 8 16 mph 1010.4mb 37f 31f
Qui 12/08 11:54 10 17 mph 1010.3mb 37f 31f
11:48 9 15 mph 1010.4mb 38f 31f
11:36 10 13 mph 1010.4mb 38f 31f
11:30 9 15 mph 1010.5mb 38f 32f
11:24 10 15 mph 1010.4mb 38f 33f
11:18 10 15 mph 1010.3mb 39f 33f
11:12 7 13 mph 1010.3mb 39f 33f
11:06 8 17 mph 1010.2mb 39f 33f
11:00 11 15 mph 1010.2mb 40f 33f
10:54 10 21 mph 1010.1mb 39f 34f
10:48 10 20 mph 1010mb 40f 34f
10:36 7 16 mph 1010mb 40f 34f
10:30 9 17 mph 1010mb 41f 34f
10:24 9 14 mph 1009.9mb 42f 34f
10:18 8 13 mph 1009.8mb 42f 34f
10:12 9 13 mph 1009.7mb 43f 34f
10:06 7 17 mph 1009.6mb 44f 34f
10:00 6 13 mph 1009.7mb 45f 34f
9:54 10 16 mph 1009.7mb 46f 34f
9:48 9 15 mph 1009.7mb 47f 34f
9:36 8 18 mph 1009.5mb 49f 35f
9:30 7 15 mph 1009.5mb 50f 35f
9:24 10 22 mph 1009.5mb 50f 35f
9:18 10 17 mph 1009.6mb 50f 35f
9:12 6 15 mph 1009.5mb 51f 35f
9:06 9 18 mph 1009.5mb 51f 35f
9:00 8 17 mph 1009.4mb 51f 35f
8:54 10 18 mph 1009.4mb 51f 35f
8:48 7 14 mph 1009.5mb 51f 35f
8:36 7 16 mph 1009.3mb 51f 35f
8:30 8 18 mph 1009.3mb 51f 35f
8:24 8 15 mph 1009.2mb 51f 35f
8:18 7 16 mph 1009.2mb 51f 35f
8:12 8 16 mph 1009.1mb 51f 34f
8:06 5 14 mph 1009mb 51f 35f
8:00 9 15 mph 1009.2mb 51f 34f
7:54 7 14 mph 1009.3mb 51f 35f
7:48 5 10 mph 1009.4mb 51f 36f
7:36 2 8 mph 1009.6mb 51f 36f
7:30 2 8 mph 1009.7mb 51f 36f
7:24 3 8 mph 1009.7mb 51f 36f
7:18 5 11 mph 1009.7mb 51f 36f
7:12 8 10 mph 1009.6mb 51f 36f
7:06 7 10 mph 1009.5mb 51f 36f
7:00 6 14 mph 1009.4mb 51f 36f
6:54 7 13 mph 1009.5mb 51f 36f
6:48 7 13 mph 1009.6mb 51f 36f
6:36 8 14 mph 1009.5mb 51f 36f
6:30 7 11 mph 1009.5mb 51f 36f
6:24 5 13 mph 1009.5mb 51f 36f
6:18 7 13 mph 1009.4mb 51f 36f
6:12 7 14 mph 1009.5mb 51f 36f
6:06 10 15 mph 1009.5mb 51f 36f
6:00 7 13 mph 1009.5mb 51f 36f
5:54 8 14 mph 1009.6mb 51f 36f
5:48 7 13 mph 1009.5mb 51f 36f
5:36 8 15 mph 1009.6mb 50f 36f
5:30 10 16 mph 1009.5mb 50f 36f
5:24 8 15 mph 1009.6mb 50f 36f
5:18 9 18 mph 1009.7mb 51f 36f
5:12 13 18 mph 1009.5mb 50f 36f
5:06 9 17 mph 1009.5mb 50f 36f
5:00 10 17 mph 1009.5mb 50f 36f
4:54 10 16 mph 1009.5mb 49f 36f
4:48 8 15 mph 1009.6mb 49f 36f
4:36 7 13 mph 1009.8mb 48f 36f
4:30 8 14 mph 1009.7mb 47f 36f
4:24 8 15 mph 1009.8mb 46f 36f
4:18 10 14 mph 1009.8mb 45f 36f
4:12 9 15 mph 1009.7mb 44f 36f
4:06 7 17 mph 1009.8mb 41f 36f
4:00 9 18 mph 1009.7mb 38f 36f
3:54 10 16 mph 1009.8mb 37f 36f
3:48 8 14 mph 1009.8mb 36f 36f
3:36 7 17 mph 1010.1mb - 36f
3:30 8 14 mph 1010.1mb - 36f
3:24 7 13 mph 1010.1mb - 36f
3:18 8 15 mph 1010.3mb - 36f
3:12 7 16 mph 1010.4mb - 36f
3:06 11 22 mph 1010.5mb - 36f
3:00 7 16 mph 1010.4mb - 36f
2:54 8 21 mph 1010.5mb - 36f
2:48 11 18 mph 1010.6mb - 36f
2:36 8 15 mph 1010.8mb - 36f
2:30 9 16 mph 1010.9mb - 36f
2:24 9 20 mph 1011.1mb - 36f
2:18 10 18 mph 1010.9mb - 36f
2:12 10 22 mph 1010.8mb - 36f
2:06 11 22 mph 1010.9mb - 36f
2:00 9 21 mph 1010.9mb - 36f
1:54 11 29 mph 1010.9mb - 36f
1:48 13 22 mph 1010.9mb - 36f
1:36 11 21 mph 1010.9mb - 36f
1:30 11 25 mph 1011mb - 36f
1:24 13 21 mph 1011.1mb - 37f
1:18 10 21 mph 1011.1mb - 37f
1:12 11 18 mph 1011.1mb - 37f
1:06 14 23 mph 1011mb - 37f
1:00 10 22 mph 1011mb - 37f
12:54 15 23 mph 1011.1mb - 37f
12:48 15 22 mph 1011.3mb - 37f
12:36 10 22 mph 1011.7mb - 37f
12:30 10 24 mph 1011.8mb - 37f
12:24 14 24 mph 1012mb - 37f
12:18 13 21 mph 1012mb 36f 37f
12:12 10 22 mph 1012.2mb 36f 36f
12:06 16 28 mph 1012.2mb 37f 36f
12:00 16 28 mph 1012.3mb 37f 36f
11:54 13 26 mph 1012.4mb 37f 36f
11:48 13 22 mph 1012.5mb 38f 36f
11:36 14 23 mph 1012.7mb 37f 35f
11:30 11 25 mph 1012.7mb 38f 35f
11:24 10 21 mph 1012.8mb 38f 35f
11:18 14 22 mph 1012.8mb 39f 35f
11:12 11 25 mph 1012.9mb 39f 35f
11:06 13 23 mph 1012.9mb 40f 35f
11:00 13 22 mph 1012.9mb 40f 35f
10:54 9 23 mph 1013mb 41f 35f
10:48 14 26 mph 1013.1mb 41f 35f
10:36 10 22 mph 1013.6mb 43f 35f
10:30 11 22 mph 1013.7mb 44f 35f
10:24 16 22 mph 1013.8mb 45f 35f
10:18 9 18 mph 1014mb 46f 34f
10:12 14 23 mph 1014mb 47f 34f
10:06 11 23 mph 1014.2mb 48f 34f
10:00 13 24 mph 1014.3mb 49f 34f
9:54 10 17 mph 1014.3mb 49f 34f
9:48 11 18 mph 1014.4mb 49f 34f
9:36 11 21 mph 1014.3mb 49f 34f
9:30 9 18 mph 1014.5mb 49f 34f
9:24 10 21 mph 1014.5mb 49f 34f
9:18 10 18 mph 1014.6mb 49f 34f
9:12 10 18 mph 1014.7mb 49f 34f
9:06 14 22 mph 1014.7mb 49f 34f
9:00 11 20 mph 1014.7mb 49f 33f
8:54 10 18 mph 1014.9mb 49f 33f
8:48 9 21 mph 1014.8mb 49f 33f
8:36 11 21 mph 1014.9mb 49f 33f
8:30 10 16 mph 1015mb 49f 33f
8:24 10 21 mph 1014.9mb 49f 33f
8:18 10 17 mph 1015mb 49f 33f
8:12 10 17 mph 1015.1mb 50f 33f
8:06 10 15 mph 1015.1mb 50f 33f
8:00 11 17 mph 1015.3mb 50f 33f
7:54 10 16 mph 1015.4mb 50f 33f
7:48 8 20 mph 1015.4mb 50f 33f
7:36 9 17 mph 1015.5mb 50f 33f
7:30 9 20 mph 1015.6mb 50f 33f
7:24 9 25 mph 1015.7mb 49f 33f
7:18 10 15 mph 1015.8mb 50f 32f
7:12 10 17 mph 1015.9mb 50f 33f
7:06 9 16 mph 1016mb 50f 33f
7:00 13 20 mph 1016.1mb 50f 33f
6:54 10 17 mph 1016.2mb 50f 33f
6:48 9 16 mph 1016.3mb 50f 33f
6:36 11 18 mph 1016.5mb 50f 33f
6:30 13 22 mph 1016.6mb 50f 33f
6:24 9 15 mph 1016.6mb 49f 33f
6:18 10 17 mph 1016.7mb 50f 33f
6:12 13 18 mph 1016.7mb 50f 33f
6:06 8 15 mph 1016.6mb 50f 33f
6:00 10 17 mph 1016.5mb 50f 32f
5:54 8 18 mph 1016.5mb 50f 32f
5:48 7 16 mph 1016.6mb 50f 32f
5:36 9 18 mph 1016.7mb 49f 32f
5:30 9 18 mph 1016.7mb 49f 32f
5:24 10 18 mph 1016.8mb 49f 32f
5:18 9 17 mph 1016.9mb 49f 32f
5:12 9 17 mph 1017mb 49f 32f
5:06 10 16 mph 1017.1mb 49f 32f
5:00 10 18 mph 1017.2mb 49f 32f
4:54 9 16 mph 1017.4mb 49f 32f
4:48 9 16 mph 1017.6mb 49f 32f
4:36 7 20 mph 1017.9mb 48f 32f
4:30 10 15 mph 1018mb 48f 32f
4:24 9 14 mph 1018.1mb 48f 32f
4:18 9 14 mph 1018.2mb 48f 32f
4:12 8 17 mph 1018.3mb 47f 32f
4:06 7 18 mph 1018.4mb 46f 32f
4:00 10 16 mph 1018.4mb 45f 32f
3:54 11 16 mph 1018.5mb 44f 32f
3:48 10 15 mph 1018.7mb 42f 32f
3:36 9 17 mph 1019mb 38f 32f
3:30 8 15 mph 1019mb 37f 32f
3:24 8 15 mph 1019.1mb 36f 32f
3:18 9 18 mph 1019.2mb 36f 32f
3:12 8 14 mph 1019.4mb 36f 32f
3:06 11 18 mph 1019.6mb 36f 32f
3:00 8 16 mph 1019.6mb 36f 32f
2:54 9 15 mph 1019.7mb 36f 32f
2:48 10 16 mph 1019.8mb 36f 32f
2:36 8 14 mph 1020mb 36f 32f
2:30 8 16 mph 1020.1mb 36f 32f
2:24 8 16 mph 1020.2mb 36f 33f
2:18 9 14 mph 1020.3mb 36f 33f
2:12 11 16 mph 1020.4mb 36f 33f
2:06 8 15 mph 1020.4mb - 33f
2:00 6 14 mph 1020.5mb - 33f
1:54 8 17 mph 1020.5mb - 33f
1:48 11 20 mph 1020.5mb - 33f
1:36 9 17 mph 1020.5mb - 33f
1:30 9 15 mph 1020.5mb - 33f
1:24 7 16 mph 1020.5mb - 33f
1:18 9 15 mph 1020.6mb - 33f
1:12 9 17 mph 1020.8mb - 33f
1:06 9 16 mph 1020.8mb - 33f
1:00 8 15 mph 1020.9mb - 33f
12:54 9 14 mph 1021mb - 33f
12:48 10 16 mph 1021mb - 33f
12:36 10 17 mph 1021.2mb - 33f
12:30 8 16 mph 1021.3mb - 33f
12:24 10 17 mph 1021.3mb - 33f
12:18 7 14 mph 1021.4mb - 33f
12:12 7 13 mph 1021.5mb - 33f
12:06 7 13 mph 1021.5mb - 33f
12:00 7 10 mph 1021.6mb - 33f
Qua 12/07 11:54 9 13 mph 1021.7mb - 33f
11:48 7 14 mph 1021.8mb - 33f
11:36 5 11 mph 1022mb - 33f
11:30 7 13 mph 1022.1mb - 33f
11:24 6 14 mph 1022.2mb - 33f
11:18 7 15 mph 1022.3mb 36f 33f
11:12 9 14 mph 1022.5mb 36f 33f
11:06 8 11 mph 1022.5mb 36f 33f
11:00 7 13 mph 1022.6mb 36f 33f
10:54 7 14 mph 1022.6mb 36f 33f
10:48 9 13 mph 1022.5mb 37f 33f
10:36 9 14 mph 1022.6mb 37f 33f
10:30 9 14 mph 1022.8mb 37f 33f
10:24 8 13 mph 1022.7mb 37f 33f
10:18 9 13 mph 1022.7mb 37f 33f
10:12 7 14 mph 1022.7mb 37f 33f
10:06 7 13 mph 1022.9mb 37f 33f
10:00 8 14 mph 1022.9mb 37f 33f
9:54 7 10 mph 1023mb 37f 33f
9:48 9 15 mph 1023.1mb 37f 33f
9:36 10 18 mph 1023.2mb 37f 33f
9:30 11 16 mph 1023.2mb 38f 33f
9:24 10 15 mph 1023.3mb 38f 33f
9:18 9 15 mph 1023.2mb 38f 33f
9:12 9 17 mph 1023.3mb 38f 33f
9:06 9 18 mph 1023.2mb 38f 33f
9:00 9 14 mph 1023.2mb 38f 33f
8:54 8 14 mph 1023.2mb 38f 33f
8:48 9 13 mph 1023.3mb 39f 32f
8:36 9 15 mph 1023.4mb 39f 32f
8:30 9 15 mph 1023.5mb 40f 32f
8:24 7 14 mph 1023.6mb 40f 32f
8:18 10 17 mph 1023.7mb 40f 32f
8:12 11 16 mph 1023.8mb 40f 32f
8:06 9 16 mph 1023.9mb 41f 32f
8:00 8 14 mph 1024mb 42f 32f
7:54 7 14 mph 1024.1mb 44f 32f
7:48 8 14 mph 1024.2mb 46f 32f
7:36 8 15 mph 1024.5mb 49f 32f
7:30 6 14 mph 1024.7mb 49f 32f
7:24 7 11 mph 1024.8mb 49f 32f
7:18 6 10 mph 1024.9mb 50f 32f
7:12 6 8 mph 1025mb 50f 32f
7:06 6 8 mph 1025mb 50f 31f
7:00 6 9 mph 1025.1mb 50f 32f
6:54 6 10 mph 1025.1mb 50f 32f
6:48 6 10 mph 1025.2mb 50f 32f
6:36 7 11 mph 1025.4mb 51f 32f
6:30 7 9 mph 1025.5mb 51f 32f
6:24 7 10 mph 1025.6mb 51f 32f
6:18 8 14 mph 1025.6mb 51f 32f
6:12 6 10 mph 1025.7mb 51f 32f
6:06 6 13 mph 1025.7mb 51f 32f
6:00 7 11 mph 1025.8mb 51f 32f
5:54 6 10 mph 1025.9mb 51f 32f
5:48 7 11 mph 1025.9mb 51f 32f
5:36 7 11 mph 1026.1mb 51f 32f
5:30 7 11 mph 1026.1mb 51f 32f
5:24 7 11 mph 1026.2mb 51f 32f
5:18 7 11 mph 1026.2mb 51f 32f
5:12 7 14 mph 1026.2mb 51f 32f
5:06 8 14 mph 1026.3mb 50f 32f
5:00 8 13 mph 1026.4mb 51f 32f
4:54 8 10 mph 1026.4mb 50f 32f
4:48 9 13 mph 1026.5mb 51f 32f
4:36 6 10 mph 1026.6mb 50f 32f
4:30 6 11 mph 1026.7mb 49f 32f
4:24 8 11 mph 1026.8mb 49f 32f
4:18 6 11 mph 1026.9mb 49f 32f
4:12 6 9 mph 1026.9mb 50f 32f
4:06 3 8 mph 1026.9mb 49f 32f
4:00 5 9 mph 1027mb 49f 33f
3:54 7 10 mph 1027.1mb 48f 33f
3:48 5 10 mph 1027.2mb 48f 33f
3:36 5 11 mph 1027.3mb 45f 33f
3:30 5 11 mph 1027.3mb 42f 34f
3:24 7 10 mph 1027.3mb 40f 34f
3:18 7 14 mph 1027.4mb 39f 34f
3:12 7 10 mph 1027.5mb 38f 34f
3:06 7 13 mph 1027.5mb 38f 34f
3:00 6 13 mph 1027.6mb 38f 35f
2:54 7 11 mph 1027.6mb 38f 35f
2:48 6 14 mph 1027.6mb 38f 35f
2:36 8 16 mph 1027.7mb 38f 35f
2:30 6 13 mph 1027.7mb 38f 35f
2:24 7 14 mph 1027.7mb 37f 35f
2:18 8 14 mph 1027.8mb 37f 35f
2:12 6 14 mph 1027.8mb 37f 35f
2:06 7 15 mph 1027.7mb 37f 36f
2:00 8 14 mph 1027.7mb 37f 36f
1:54 8 13 mph 1027.7mb 37f 36f
1:48 7 14 mph 1027.7mb 37f 36f
1:36 9 14 mph 1027.7mb 37f 36f
1:30 8 14 mph 1027.8mb 37f 36f
1:24 6 10 mph 1027.8mb 37f 36f
1:18 8 13 mph 1027.9mb 37f 36f
1:12 5 10 mph 1028mb 37f 36f
1:06 7 11 mph 1028.2mb 37f 36f
1:00 9 14 mph 1028.3mb 37f 36f
12:54 6 13 mph 1028.3mb 37f 35f
12:48 9 13 mph 1028.3mb 37f 35f
12:36 9 15 mph 1028.4mb 37f 35f
12:30 9 14 mph 1028.6mb 37f 35f
12:24 8 14 mph 1028.6mb 37f 34f
12:18 10 15 mph 1028.7mb 37f 35f
12:12 8 14 mph 1028.8mb 37f 34f
12:06 7 15 mph 1028.8mb 37f 34f
12:00 8 14 mph 1028.8mb 38f 34f
11:54 7 13 mph 1028.9mb 37f 34f
11:48 7 13 mph 1029mb 38f 33f
11:36 9 15 mph 1029.2mb 37f 33f
11:30 10 16 mph 1029.3mb 38f 33f
11:24 7 16 mph 1029.3mb 37f 33f
11:18 8 13 mph 1029.4mb 37f 33f
11:12 8 15 mph 1029.4mb 37f 33f
11:06 8 13 mph 1029.4mb 37f 33f
11:00 9 14 mph 1029.5mb 37f 33f
10:54 9 14 mph 1029.5mb 37f 32f
10:48 9 17 mph 1029.5mb 38f 32f
10:36 8 14 mph 1029.5mb 38f 32f
10:30 8 15 mph 1029.5mb 38f 32f
10:24 8 15 mph 1029.5mb 38f 32f
10:18 8 16 mph 1029.4mb 38f 32f
10:12 9 16 mph 1029.5mb 38f 31f
10:06 11 16 mph 1029.4mb 39f 31f
10:00 10 16 mph 1029.4mb 39f 31f
9:54 9 15 mph 1029.5mb 39f 31f
9:48 9 14 mph 1029.5mb 39f 31f
9:36 8 20 mph 1029.6mb 40f 31f
9:30 8 16 mph 1029.6mb 40f 30f
9:24 9 15 mph 1029.6mb 40f 30f
9:18 9 17 mph 1029.6mb 40f 30f
9:12 8 14 mph 1029.7mb 41f 30f
9:06 9 16 mph 1029.7mb 42f 30f
9:00 7 15 mph 1029.6mb 42f 30f
8:54 9 17 mph 1029.6mb 42f 30f
8:48 9 14 mph 1029.7mb 43f 29f
8:36 8 15 mph 1029.7mb 44f 29f
8:30 8 14 mph 1029.8mb 44f 29f
8:24 10 14 mph 1029.8mb 44f 29f
8:18 9 14 mph 1029.7mb 45f 29f
8:12 6 11 mph 1029.6mb 46f 29f
8:06 7 14 mph 1029.6mb 48f 29f
8:00 7 11 mph 1029.6mb 49f 29f
7:54 8 11 mph 1029.6mb 49f 29f
7:48 7 10 mph 1029.6mb 50f 29f
7:36 8 13 mph 1029.4mb 51f 29f
7:30 8 17 mph 1029.5mb 51f 29f
7:24 8 14 mph 1029.5mb 51f 29f
7:18 6 14 mph 1029.6mb 51f 29f
7:12 8 13 mph 1029.5mb 50f 29f
7:06 7 11 mph 1029.4mb 50f 29f
7:00 7 15 mph 1029.4mb 50f 29f
6:54 8 13 mph 1029.4mb 50f 29f
6:48 9 15 mph 1029.4mb 50f 29f
6:36 7 11 mph 1029.5mb 50f 29f
6:30 8 13 mph 1029.5mb 50f 29f
6:24 7 10 mph 1029.6mb 51f 29f
6:18 7 13 mph 1029.6mb 50f 29f
6:12 9 15 mph 1029.6mb 50f 30f
6:06 9 14 mph 1029.6mb 50f 30f
6:00 7 15 mph 1029.6mb 50f 30f
5:54 8 13 mph 1029.6mb 50f 30f
5:48 10 14 mph 1029.6mb 50f 30f
5:36 8 14 mph 1029.6mb 50f 30f
5:30 7 11 mph 1029.6mb 50f 30f
5:24 10 14 mph 1029.6mb 50f 30f
5:18 9 14 mph 1029.6mb 50f 30f
5:12 9 14 mph 1029.5mb 50f 30f
5:06 7 13 mph 1029.6mb 50f 30f
5:00 7 11 mph 1029.6mb 50f 30f
4:54 8 11 mph 1029.6mb 50f 30f
4:48 7 10 mph 1029.7mb 49f 30f
4:36 7 14 mph 1029.7mb 49f 30f
4:30 10 14 mph 1029.7mb 49f 30f
4:24 7 13 mph 1029.7mb 49f 30f
4:18 9 14 mph 1029.7mb 48f 30f
4:12 8 13 mph 1029.7mb 48f 30f
4:06 8 13 mph 1029.6mb 47f 30f
4:00 6 11 mph 1029.6mb 47f 30f
3:54 6 11 mph 1029.5mb 46f 30f
3:48 9 13 mph 1029.5mb 45f 30f
3:36 9 14 mph 1029.5mb 41f 30f
3:30 8 13 mph 1029.5mb 39f 30f
3:24 7 11 mph 1029.5mb 38f 30f
3:18 7 10 mph 1029.5mb 38f 30f
3:12 7 9 mph 1029.5mb 38f 30f
3:06 7 11 mph 1029.5mb 38f 30f
3:00 7 9 mph 1029.5mb 38f 30f
2:54 7 13 mph 1029.5mb 38f 30f
2:48 7 10 mph 1029.5mb 38f 30f